Time;durP1;ratioP1;P1;durP2;ratioP2;P2;SDS_P1;SDS_P2;PMS_P1;PMS_P2;Temp;Humidity;BMP_temperature;BMP_pressure;BME280_temperature;BME280_humidity;BME280_pressure;Samples;Min_cycle;Max_cycle;Signal;HPM_P1;HPM_P2
2023/08/22 00:00:10;;;;;;;16.50;15.10;;;;;;;22.14;76.49;93241.13;5052861;28;20186;-74
2023/08/22 00:02:35;;;;;;;18.35;16.58;;;;;;;22.22;76.37;93248.22;5052123;28;20227;-73
2023/08/22 00:05:01;;;;;;;17.25;15.52;;;;;;;22.16;76.77;93236.25;5052343;28;20241;-73
2023/08/22 00:07:26;;;;;;;17.52;16.05;;;;;;;22.18;76.98;93239.31;5055184;28;20241;-74
2023/08/22 00:09:51;;;;;;;18.10;16.33;;;;;;;22.10;77.35;93241.00;5072867;28;20181;-74
2023/08/22 00:12:18;;;;;;;16.23;15.02;;;;;;;22.12;77.82;93240.66;5072019;28;20211;-74
2023/08/22 00:14:44;;;;;;;17.45;15.73;;;;;;;22.11;77.92;93236.47;5072248;28;20184;-74
2023/08/22 00:17:10;;;;;;;16.30;15.00;;;;;;;21.97;78.30;93241.34;5072093;28;20189;-73
2023/08/22 00:19:38;;;;;;;16.98;15.55;;;;;;;21.97;77.81;93236.03;5052280;28;20211;-75
2023/08/22 00:22:03;;;;;;;16.67;15.27;;;;;;;21.98;77.68;93234.91;5052514;28;20221;-73
2023/08/22 00:24:29;;;;;;;16.52;14.93;;;;;;;21.88;78.51;93228.16;5051683;28;20229;-73
2023/08/22 00:26:55;;;;;;;16.58;14.88;;;;;;;21.99;78.12;93228.50;5051058;28;20195;-73
2023/08/22 00:29:20;;;;;;;16.30;15.00;;;;;;;21.93;78.22;93230.59;5051609;28;20223;-73
2023/08/22 00:31:46;;;;;;;16.30;15.00;;;;;;;21.79;78.36;93229.41;5069379;28;20196;-73
2023/08/22 00:34:11;;;;;;;16.02;14.73;;;;;;;21.82;79.56;93223.41;5051463;28;20250;-73
2023/08/22 00:36:37;;;;;;;16.73;15.30;;;;;;;21.73;78.39;93220.81;5052274;28;20183;-74
2023/08/22 00:39:02;;;;;;;16.98;15.27;;;;;;;21.70;78.72;93220.69;5051459;28;20215;-74
2023/08/22 00:41:28;;;;;;;16.95;15.50;;;;;;;21.73;79.30;93228.00;5051457;28;20196;-74
2023/08/22 00:43:53;;;;;;;16.83;15.13;;;;;;;21.65;80.17;93234.22;5051320;28;20225;-74
2023/08/22 00:46:20;;;;;;;17.20;15.68;;;;;;;21.58;80.01;93237.44;5051264;28;20195;-74
2023/08/22 00:48:46;;;;;;;16.85;15.30;;;;;;;21.50;79.47;93206.41;5051551;28;20242;-74
2023/08/22 00:51:12;;;;;;;17.08;15.50;;;;;;;21.55;79.07;93216.03;5051586;28;20197;-74
2023/08/22 00:53:38;;;;;;;16.33;14.82;;;;;;;21.61;80.36;93238.63;5050864;28;20231;-73
2023/08/22 00:56:04;;;;;;;15.68;14.20;;;;;;;21.63;79.49;93215.16;5051756;28;20195;-74
2023/08/22 00:58:31;;;;;;;18.92;16.35;;;;;;;21.55;80.10;93237.31;5050677;28;21007;-74
2023/08/22 01:00:57;;;;;;;18.02;16.33;;;;;;;21.51;80.33;93234.53;5051696;28;20257;-73
2023/08/22 01:03:23;;;;;;;16.17;14.77;;;;;;;21.57;80.55;93235.09;5050810;28;20227;-74
2023/08/22 01:05:55;;;;;;;16.35;14.95;;;;;;;21.56;80.19;93231.66;5051690;28;20190;-74
2023/08/22 01:08:31;;;;;;;17.17;15.32;;;;;;;21.61;79.26;93228.00;5051062;28;20250;-74
2023/08/22 01:11:06;;;;;;;16.27;14.98;;;;;;;21.59;80.08;93228.34;5047761;28;20195;-73
2023/08/22 01:13:34;;;;;;;19.00;16.85;;;;;;;21.59;79.85;93230.22;5041788;28;20223;-73
2023/08/22 01:16:01;;;;;;;16.42;14.98;;;;;;;21.53;80.49;93227.00;5051402;28;20192;-74
2023/08/22 01:18:27;;;;;;;16.92;15.52;;;;;;;21.54;81.22;93235.75;5062839;28;20219;-74
2023/08/22 01:21:04;;;;;;;17.65;16.02;;;;;;;21.49;80.13;93226.13;5074026;28;20212;-74
2023/08/22 01:23:29;;;;;;;17.27;15.88;;;;;;;21.44;80.07;93230.88;5059410;28;20227;-73
2023/08/22 01:25:55;;;;;;;16.00;14.70;;;;;;;21.41;80.65;93234.19;5050925;28;20191;-74
2023/08/22 01:28:36;;;;;;;16.00;14.60;;;;;;;21.46;79.65;93241.94;5060794;28;20227;-74
2023/08/22 01:31:33;;;;;;;16.75;15.05;;;;;;;21.33;79.74;93221.75;5071011;28;20237;-74
2023/08/22 01:34:06;;;;;;;17.48;14.18;;;;;;;21.32;79.40;93225.53;5070060;28;20251;-74
2023/08/22 01:36:33;;;;;;;15.85;14.48;;;;;;;21.27;79.80;93228.41;5070939;28;20189;-74
2023/08/22 01:39:04;;;;;;;16.77;15.27;;;;;;;21.35;79.23;93224.88;5069429;28;20219;-74
2023/08/22 01:41:29;;;;;;;15.77;14.40;;;;;;;21.19;80.12;93226.59;5070759;28;20192;-74
2023/08/22 01:43:55;;;;;;;15.23;13.88;;;;;;;21.23;79.72;93222.19;5078348;28;20241;-74
2023/08/22 01:46:20;;;;;;;15.50;14.00;;;;;;;21.05;79.48;93212.84;5071167;28;20726;-74
2023/08/22 01:48:45;;;;;;;19.45;14.68;;;;;;;21.23;79.69;93227.50;5070498;28;20210;-73
2023/08/22 01:51:11;;;;;;;15.25;13.85;;;;;;;21.17;81.56;93226.19;5070520;28;20249;-74
2023/08/22 01:53:36;;;;;;;19.63;16.08;;;;;;;21.00;82.67;93229.75;5077739;28;20364;-75
2023/08/22 01:56:02;;;;;;;15.80;14.20;;;;;;;21.17;81.22;93234.16;5070624;28;20200;-75
2023/08/22 01:58:28;;;;;;;17.00;15.43;;;;;;;21.04;81.41;93204.13;5059367;28;20230;-73
2023/08/22 02:00:53;;;;;;;16.30;14.80;;;;;;;21.00;81.97;93231.63;5050414;28;20251;-74
2023/08/22 02:03:20;;;;;;;15.55;14.18;;;;;;;20.86;82.34;93229.22;5048546;28;20237;-74
2023/08/22 02:05:46;;;;;;;15.02;13.90;;;;;;;20.80;81.41;93221.78;5050429;28;20237;-73
2023/08/22 02:08:11;;;;;;;17.48;15.27;;;;;;;20.86;80.58;93223.16;5058011;28;20219;-74
2023/08/22 02:10:36;;;;;;;16.40;15.07;;;;;;;20.96;81.46;93226.22;5069013;28;20195;-74
2023/08/22 02:13:02;;;;;;;16.30;14.90;;;;;;;20.89;81.88;93228.56;5068508;28;20224;-74
2023/08/22 02:15:27;;;;;;;15.98;14.48;;;;;;;21.05;81.58;93228.78;5070063;28;20194;-74
2023/08/22 02:17:53;;;;;;;14.82;13.63;;;;;;;20.99;81.09;93224.78;5069995;28;20226;-74
2023/08/22 02:20:19;;;;;;;15.98;14.57;;;;;;;20.85;81.64;93232.22;5070292;28;20190;-74
2023/08/22 02:22:44;;;;;;;16.08;14.65;;;;;;;20.90;82.04;93218.75;5070707;28;20240;-74
2023/08/22 02:25:11;;;;;;;16.58;14.93;;;;;;;20.88;82.00;93229.69;5069972;28;20213;-74
2023/08/22 02:27:39;;;;;;;15.50;14.05;;;;;;;20.84;82.28;93226.13;5067073;28;20227;-74
2023/08/22 02:30:06;;;;;;;17.08;15.35;;;;;;;20.76;81.80;93228.88;5050274;28;20191;-74
2023/08/22 02:32:32;;;;;;;15.15;13.65;;;;;;;20.57;82.26;93213.41;5052471;28;20312;-74
2023/08/22 02:34:57;;;;;;;29.80;14.98;;;;;;;20.64;82.50;93221.63;5071574;28;20196;-74
2023/08/22 02:37:22;;;;;;;18.70;15.60;;;;;;;20.76;82.61;93226.22;5069576;28;20192;-74
2023/08/22 02:39:48;;;;;;;21.67;13.90;;;;;;;20.67;81.78;93224.41;5069707;28;20696;-73
2023/08/22 02:42:13;;;;;;;16.88;14.80;;;;;;;20.58;81.78;93218.41;5069095;28;20787;-74
2023/08/22 02:44:39;;;;;;;17.15;15.38;;;;;;;20.56;81.93;93211.88;5069689;28;20249;-74
2023/08/22 02:47:04;;;;;;;16.05;14.50;;;;;;;20.59;81.96;93216.53;5069793;28;20197;-74
2023/08/22 02:49:30;;;;;;;16.10;14.80;;;;;;;20.58;81.56;93236.19;5069491;28;20218;-74
2023/08/22 02:51:55;;;;;;;16.00;14.43;;;;;;;20.62;81.38;93224.59;5069201;28;20228;-75
2023/08/22 02:54:20;;;;;;;15.60;14.00;;;;;;;20.51;81.24;93239.34;5068949;28;20225;-74
2023/08/22 02:56:46;;;;;;;14.43;13.23;;;;;;;20.46;81.19;93230.81;5069615;28;20186;-74
2023/08/22 02:59:11;;;;;;;20.15;13.90;;;;;;;20.44;82.01;93241.75;5069107;28;20332;-74
2023/08/22 03:01:37;;;;;;;14.98;13.75;;;;;;;20.56;82.02;93241.81;5069319;28;20195;-73
2023/08/22 03:04:02;;;;;;;14.25;12.95;;;;;;;20.39;82.80;93233.97;5068064;28;20233;-73
2023/08/22 03:06:27;;;;;;;14.75;13.50;;;;;;;20.16;84.15;93238.06;5064879;28;20426;-74
2023/08/22 03:08:53;;;;;;;14.88;13.40;;;;;;;20.19;83.49;93242.72;5069281;28;20982;-73
2023/08/22 03:11:18;;;;;;;14.52;13.13;;;;;;;20.36;82.47;93239.94;5069374;28;20216;-74
2023/08/22 03:13:43;;;;;;;14.20;13.00;;;;;;;20.31;82.35;93239.38;5068993;28;20245;-74
2023/08/22 03:16:09;;;;;;;14.82;13.63;;;;;;;20.33;82.42;93243.25;5069381;28;20185;-74
2023/08/22 03:18:34;;;;;;;15.55;14.05;;;;;;;20.34;81.63;93228.09;5070265;28;20228;-77
2023/08/22 03:21:00;;;;;;;15.13;13.88;;;;;;;20.36;81.50;93239.94;5072099;28;20218;-74
2023/08/22 03:23:25;;;;;;;15.43;14.00;;;;;;;20.37;81.12;93238.84;5074420;28;20296;-74
2023/08/22 03:26:02;;;;;;;15.00;13.70;;;;;;;20.28;81.43;93246.06;5085926;28;20243;-73
2023/08/22 03:28:28;;;;;;;15.35;14.13;;;;;;;20.27;83.29;93244.53;5073080;28;20239;-74
2023/08/22 03:30:58;;;;;;;14.55;13.35;;;;;;;20.09;83.21;93236.97;5073209;28;20191;-74
2023/08/22 03:33:25;;;;;;;15.48;13.90;;;;;;;20.07;82.96;93255.84;5072794;28;20284;-74
2023/08/22 03:35:51;;;;;;;14.25;13.05;;;;;;;19.98;82.93;93230.50;5073198;28;20189;-73
2023/08/22 03:38:17;;;;;;;14.57;13.37;;;;;;;20.10;82.92;93252.56;5073267;28;20239;-74
2023/08/22 03:40:42;;;;;;;16.05;14.35;;;;;;;20.02;83.80;93248.09;5072841;28;20207;-74
2023/08/22 03:43:08;;;;;;;14.98;13.45;;;;;;;20.12;83.91;93252.25;5072719;28;20258;-73
2023/08/22 03:45:33;;;;;;;18.90;14.20;;;;;;;20.15;83.40;93252.41;5071763;28;20205;-74
2023/08/22 03:48:03;;;;;;;18.13;14.95;;;;;;;20.03;86.04;93246.97;5073138;28;20256;-74
2023/08/22 03:50:31;;;;;;;15.18;13.90;;;;;;;20.00;87.72;93233.59;5072971;28;20196;-73
2023/08/22 03:52:57;;;;;;;19.77;14.63;;;;;;;20.20;85.51;93243.50;5078337;28;20857;-74
2023/08/22 03:55:22;;;;;;;16.65;15.10;;;;;;;20.19;85.69;93239.28;5071922;28;20184;-74
2023/08/22 03:57:48;;;;;;;17.25;15.13;;;;;;;20.29;84.38;93245.00;5072340;28;20236;-74
2023/08/22 04:00:14;;;;;;;16.88;13.98;;;;;;;20.39;82.75;93241.94;5084477;28;20193;-74
2023/08/22 04:02:39;;;;;;;15.88;14.07;;;;;;;20.34;83.27;93241.38;5067852;28;20235;-74
2023/08/22 04:05:05;;;;;;;15.50;14.00;;;;;;;20.46;84.51;93247.53;5052161;28;20219;-74
2023/08/22 04:07:30;;;;;;;17.13;14.23;;;;;;;20.39;83.65;93247.25;5051619;28;20233;-74
2023/08/22 04:09:56;;;;;;;16.27;14.57;;;;;;;20.45;83.02;93245.19;5052435;28;20193;-74
2023/08/22 04:12:21;;;;;;;16.08;14.32;;;;;;;20.60;83.74;93257.88;5051972;28;20197;-73
2023/08/22 04:14:46;;;;;;;15.05;13.50;;;;;;;20.76;83.61;93268.69;5052234;28;20243;-73
2023/08/22 04:17:12;;;;;;;17.95;15.10;;;;;;;20.69;84.18;93264.66;5051515;28;20184;-74
2023/08/22 04:19:38;;;;;;;19.33;16.33;;;;;;;20.73;84.17;93266.69;5073639;28;20178;-73
2023/08/22 04:22:04;;;;;;;15.02;13.63;;;;;;;20.77;83.42;93257.72;5075757;28;20239;-74
2023/08/22 04:24:30;;;;;;;16.73;14.30;;;;;;;20.93;83.59;93266.66;5051887;28;20230;-73
2023/08/22 04:26:55;;;;;;;17.83;15.93;;;;;;;21.03;83.41;93276.13;5051477;28;20744;-74
2023/08/22 04:29:21;;;;;;;16.90;15.25;;;;;;;20.98;84.35;93266.47;5069734;28;20254;-73
2023/08/22 04:31:46;;;;;;;18.33;15.43;;;;;;;20.98;83.50;93265.72;5069790;28;20263;-73
2023/08/22 04:34:11;;;;;;;17.35;15.55;;;;;;;21.10;84.06;93271.06;5071191;28;20224;-73
2023/08/22 04:36:37;;;;;;;18.83;16.90;;;;;;;21.16;84.44;93275.84;5070500;28;20186;-75
2023/08/22 04:39:02;;;;;;;16.73;14.98;;;;;;;21.24;83.37;93255.63;5074726;28;20215;-74
2023/08/22 04:41:28;;;;;;;19.02;15.27;;;;;;;21.28;83.75;93264.47;5073522;28;20185;-75
2023/08/22 04:43:53;;;;;;;17.92;16.20;;;;;;;21.53;83.38;93287.34;5070193;28;20248;-74
2023/08/22 04:46:20;;;;;;;21.20;14.73;;;;;;;21.50;82.92;93264.88;5070923;28;20233;-76
2023/08/22 04:48:45;;;;;;;16.55;14.75;;;;;;;21.73;82.64;93281.97;5057557;28;20231;-75
2023/08/22 04:51:10;;;;;;;16.52;13.90;;;;;;;21.77;81.76;93284.78;5050762;28;21740;-76
2023/08/22 04:53:36;;;;;;;17.83;16.00;;;;;;;21.75;79.53;93289.63;5050519;28;20232;-75
2023/08/22 04:56:01;;;;;;;21.40;17.25;;;;;;;21.44;79.91;93257.44;5050113;28;20172;-74
2023/08/22 04:58:26;;;;;;;22.90;16.88;;;;;;;21.79;79.92;93298.50;5049625;28;20226;-77
2023/08/22 05:00:52;;;;;;;19.05;17.25;;;;;;;21.92;79.68;93287.56;5049679;28;20966;-75
2023/08/22 05:03:19;;;;;;;20.13;17.95;;;;;;;21.92;79.11;93300.84;5058605;28;20262;-75
2023/08/22 05:05:45;;;;;;;18.60;16.67;;;;;;;22.08;78.63;93300.97;5069732;28;20204;-74
2023/08/22 05:08:10;;;;;;;22.80;17.52;;;;;;;22.22;77.86;93290.78;5063168;28;20270;-73
2023/08/22 05:10:36;;;;;;;18.77;16.83;;;;;;;22.41;78.12;93296.31;5058990;28;20282;-72
2023/08/22 05:13:01;;;;;;;19.23;16.67;;;;;;;22.53;78.04;93298.97;5050498;28;20225;-73
2023/08/22 05:15:27;;;;;;;18.60;16.77;;;;;;;22.33;77.96;93302.53;5050349;28;20199;-76
2023/08/22 05:17:52;;;;;;;18.45;16.60;;;;;;;22.55;77.61;93294.09;5055912;28;20220;-74
2023/08/22 05:20:17;;;;;;;19.48;17.48;;;;;;;22.64;77.32;93296.63;5065386;28;20190;-73
2023/08/22 05:22:43;;;;;;;20.42;18.08;;;;;;;22.83;76.68;93296.81;5067040;28;20239;-73
2023/08/22 05:25:09;;;;;;;18.60;16.83;;;;;;;22.86;76.17;93286.28;5070003;28;20230;-73
2023/08/22 05:27:34;;;;;;;19.58;17.42;;;;;;;23.05;75.87;93297.06;5069691;28;20232;-73
2023/08/22 05:29:59;;;;;;;20.25;18.25;;;;;;;23.31;74.39;93300.13;5070676;28;20195;-74
2023/08/22 05:32:25;;;;;;;22.70;20.30;;;;;;;23.26;74.59;93297.69;5062304;28;20204;-73
2023/08/22 05:34:50;;;;;;;19.65;17.60;;;;;;;22.84;76.88;93285.81;5048046;28;21040;-75
2023/08/22 05:37:15;;;;;;;36.33;17.25;;;;;;;23.07;76.44;93294.06;5050513;28;20762;-74
2023/08/22 05:39:41;;;;;;;19.55;17.23;;;;;;;23.17;76.47;93305.03;5078095;28;20218;-76
2023/08/22 05:42:06;;;;;;;19.17;17.23;;;;;;;23.16;76.61;93308.78;5067493;28;20197;-74
2023/08/22 05:44:32;;;;;;;19.35;17.42;;;;;;;23.38;75.59;93305.63;5048983;28;20293;-72
2023/08/22 05:46:58;;;;;;;24.13;18.33;;;;;;;23.08;76.74;93307.03;5046811;28;20211;-73
2023/08/22 05:49:24;;;;;;;29.65;19.42;;;;;;;23.04;76.71;93294.75;5065485;28;20216;-74
2023/08/22 05:51:49;;;;;;;20.98;18.83;;;;;;;23.15;76.33;93301.94;5068335;28;20254;-74
2023/08/22 05:54:15;;;;;;;21.40;18.48;;;;;;;23.43;75.39;93293.94;5068967;28;21132;-74
2023/08/22 05:56:40;;;;;;;22.42;18.75;;;;;;;23.96;73.44;93304.13;5069133;28;20180;-74
2023/08/22 05:59:05;;;;;;;19.15;17.15;;;;;;;23.98;73.21;93306.44;5068354;28;20231;-72
2023/08/22 06:01:31;;;;;;;20.73;18.60;;;;;;;23.96;73.49;93308.63;5068582;28;20203;-73
2023/08/22 06:03:57;;;;;;;18.55;16.63;;;;;;;25.35;67.54;93307.66;5068499;28;20251;-73
2023/08/22 06:06:22;;;;;;;18.92;17.02;;;;;;;28.17;58.27;93311.41;5068996;28;20179;-74
2023/08/22 06:08:47;;;;;;;16.55;14.85;;;;;;;31.48;47.26;93323.97;5070212;28;20235;-74
2023/08/22 06:11:13;;;;;;;17.80;16.17;;;;;;;33.31;41.85;93330.88;5068971;28;20189;-73
2023/08/22 06:13:38;;;;;;;17.85;16.10;;;;;;;33.88;39.96;93334.47;5067032;28;20224;-74
2023/08/22 06:16:03;;;;;;;20.05;15.15;;;;;;;31.76;44.35;93313.06;5069155;28;20292;-74
2023/08/22 06:18:29;;;;;;;17.95;16.13;;;;;;;27.10;58.72;93311.72;5069036;28;20221;-73
2023/08/22 06:20:59;;;;;;;17.17;15.63;;;;;;;26.43;61.71;93311.50;5069441;28;20188;-74
2023/08/22 06:23:24;;;;;;;18.92;16.90;;;;;;;25.84;64.10;93299.78;5067981;28;20221;-71
2023/08/22 06:25:49;;;;;;;19.55;17.70;;;;;;;25.52;65.78;93287.72;5072060;28;20185;-73
2023/08/22 06:28:15;;;;;;;23.98;17.67;;;;;;;25.46;66.76;93300.63;5067396;28;20228;-73
2023/08/22 06:30:40;;;;;;;21.77;19.67;;;;;;;25.62;66.05;93298.59;5069200;28;20189;-74
2023/08/22 06:33:05;;;;;;;19.90;17.30;;;;;;;25.83;65.77;93303.56;5066838;28;20290;-74
2023/08/22 06:35:31;;;;;;;19.58;17.60;;;;;;;25.92;65.79;93290.72;5069402;28;20223;-73
2023/08/22 06:37:56;;;;;;;20.77;18.20;;;;;;;26.08;65.39;93292.19;5068305;28;20240;-73
2023/08/22 06:40:22;;;;;;;20.40;18.40;;;;;;;26.00;65.38;93295.88;5070590;28;20212;-74
2023/08/22 06:42:48;;;;;;;19.75;17.88;;;;;;;26.15;65.13;93294.97;5073093;28;20224;-74
2023/08/22 06:45:14;;;;;;;19.88;17.80;;;;;;;26.12;65.55;93306.41;5069620;28;20223;-74
2023/08/22 06:47:39;;;;;;;19.85;18.05;;;;;;;25.98;65.28;93300.00;5073903;28;20248;-74
2023/08/22 06:50:05;;;;;;;20.75;18.48;;;;;;;26.01;65.63;93310.78;5068923;28;20193;-74
2023/08/22 06:52:31;;;;;;;20.58;18.48;;;;;;;25.65;67.56;93305.91;5068007;28;20270;-74
2023/08/22 06:54:56;;;;;;;24.67;17.13;;;;;;;25.96;65.85;93318.34;5068385;28;20249;-74
2023/08/22 06:57:21;;;;;;;20.73;18.50;;;;;;;26.10;65.53;93313.25;5068016;28;20212;-74
2023/08/22 06:59:47;;;;;;;19.85;17.80;;;;;;;25.96;65.45;93311.06;5065372;28;20174;-74
2023/08/22 07:02:12;;;;;;;19.48;17.70;;;;;;;26.08;65.38;93310.94;5063139;28;20203;-74
2023/08/22 07:04:37;;;;;;;20.13;18.25;;;;;;;25.70;66.45;93313.66;5068281;28;20239;-74
2023/08/22 07:07:04;;;;;;;23.55;18.90;;;;;;;25.19;68.14;93304.25;5068545;28;20221;-74
2023/08/22 07:09:29;;;;;;;26.05;18.05;;;;;;;25.61;67.27;93305.09;5067095;28;20259;-74
2023/08/22 07:11:55;;;;;;;20.77;17.23;;;;;;;25.85;66.74;93302.09;5068501;28;20196;-74
2023/08/22 07:14:20;;;;;;;20.52;18.33;;;;;;;26.09;65.75;93307.13;5067520;28;20221;-74
2023/08/22 07:16:45;;;;;;;20.67;18.60;;;;;;;26.51;64.57;93307.78;5068228;28;20190;-74
2023/08/22 07:19:11;;;;;;;19.90;17.98;;;;;;;26.56;64.01;93304.03;5068139;28;20213;-74
2023/08/22 07:21:36;;;;;;;20.10;18.15;;;;;;;26.17;65.48;93303.44;5067037;28;20204;-73
2023/08/22 07:24:03;;;;;;;20.58;17.27;;;;;;;26.01;65.46;93305.44;5067763;28;20225;-74
2023/08/22 07:26:28;;;;;;;22.83;19.10;;;;;;;26.34;65.48;93302.16;5067508;28;20193;-75
2023/08/22 07:28:54;;;;;;;23.13;18.35;;;;;;;26.15;66.07;93297.66;5076390;28;20251;-75
2023/08/22 07:31:19;;;;;;;20.38;18.48;;;;;;;26.56;64.42;93296.00;5065438;28;20715;-74
2023/08/22 07:33:44;;;;;;;24.27;17.90;;;;;;;26.76;63.36;93302.06;5053942;28;20234;-74
2023/08/22 07:36:20;;;;;;;20.33;18.20;;;;;;;26.47;64.57;93300.84;5048454;28;20221;-73
2023/08/22 07:38:45;;;;;;;21.15;18.55;;;;;;;27.12;62.21;93304.06;5047243;28;20224;-73
2023/08/22 07:41:11;;;;;;;18.92;17.05;;;;;;;26.94;61.56;93297.72;5048306;28;20202;-73
2023/08/22 07:43:36;;;;;;;21.10;19.00;;;;;;;27.14;60.79;93299.13;5058873;28;20256;-73
2023/08/22 07:46:02;;;;;;;22.60;17.77;;;;;;;26.62;63.40;93291.88;5064904;28;20189;-73
2023/08/22 07:48:28;;;;;;;21.70;17.92;;;;;;;26.73;63.09;93301.66;5064192;28;20214;-74
2023/08/22 07:50:55;;;;;;;21.20;18.63;;;;;;;26.52;63.62;93290.56;5066592;28;20177;-74
2023/08/22 07:53:20;;;;;;;19.08;17.25;;;;;;;27.14;61.41;93299.91;5058198;28;20249;-73
2023/08/22 07:55:47;;;;;;;19.40;17.33;;;;;;;27.06;61.93;93297.47;5048300;28;20182;-73
2023/08/22 07:58:13;;;;;;;20.77;18.02;;;;;;;27.40;59.76;93299.84;5047698;28;20237;-73
2023/08/22 08:00:38;;;;;;;18.45;16.55;;;;;;;27.69;59.54;93304.38;5047509;28;20202;-73
2023/08/22 08:03:04;;;;;;;20.33;16.77;;;;;;;26.99;59.51;93300.81;5047353;28;20238;-72
2023/08/22 08:05:29;;;;;;;19.40;17.30;;;;;;;26.86;60.59;93310.25;5047526;28;20220;-73
2023/08/22 08:07:55;;;;;;;17.25;15.45;;;;;;;26.70;60.06;93272.91;5049463;28;20225;-73
2023/08/22 08:10:20;;;;;;;18.33;16.00;;;;;;;26.91;59.11;93296.53;5051686;28;20170;-73
2023/08/22 08:12:46;;;;;;;18.05;16.15;;;;;;;27.25;58.42;93305.38;5049646;28;20229;-73
2023/08/22 08:15:11;;;;;;;18.30;16.40;;;;;;;27.65;57.45;93300.13;5048938;28;20301;-73
2023/08/22 08:17:37;;;;;;;18.35;15.65;;;;;;;27.24;58.75;93291.19;5050211;28;20230;-74
2023/08/22 08:20:04;;;;;;;19.70;16.00;;;;;;;27.36;58.17;93301.72;5052234;28;20201;-73
2023/08/22 08:22:30;;;;;;;18.67;16.65;;;;;;;27.52;57.74;93301.53;5050994;28;20226;-75
2023/08/22 08:24:56;;;;;;;16.70;14.23;;;;;;;28.01;55.97;93307.41;5051437;28;20229;-73
2023/08/22 08:27:21;;;;;;;15.27;13.82;;;;;;;28.30;53.49;93298.47;5052474;28;20262;-73
2023/08/22 08:29:47;;;;;;;15.10;13.70;;;;;;;28.42;53.00;93306.25;5071231;28;20182;-75
2023/08/22 08:32:12;;;;;;;15.45;14.05;;;;;;;28.52;49.79;93299.41;5069632;28;20189;-74
2023/08/22 08:34:38;;;;;;;17.35;13.55;;;;;;;28.53;50.79;93301.72;5071527;28;20494;-73
2023/08/22 08:37:04;;;;;;;14.75;13.38;;;;;;;28.78;49.18;93313.44;5070732;28;20681;-73
2023/08/22 08:39:29;;;;;;;13.15;12.07;;;;;;;28.88;48.06;93311.97;5070321;28;20244;-74
2023/08/22 08:42:06;;;;;;;14.98;13.52;;;;;;;28.81;49.28;93312.69;5070994;28;20189;-74
2023/08/22 08:44:33;;;;;;;14.55;13.25;;;;;;;29.17;46.27;93309.09;5070445;28;20221;-72
2023/08/22 08:46:59;;;;;;;14.20;12.93;;;;;;;29.03;48.72;93308.22;5071384;28;20263;-71
2023/08/22 08:49:25;;;;;;;15.65;14.27;;;;;;;29.13;46.95;93312.91;5070790;28;20219;-72
2023/08/22 08:51:51;;;;;;;14.77;13.50;;;;;;;29.10;48.05;93309.06;5071059;28;20707;-71
2023/08/22 08:54:18;;;;;;;15.82;13.82;;;;;;;28.98;47.88;93295.88;5070112;28;20231;-72
2023/08/22 08:56:44;;;;;;;17.30;14.10;;;;;;;29.16;45.98;93310.25;5070629;28;20532;-72
2023/08/22 08:59:09;;;;;;;14.10;13.07;;;;;;;29.15;46.75;93297.16;5049157;28;20233;-72
2023/08/22 09:01:36;;;;;;;16.40;14.95;;;;;;;29.29;46.52;93306.06;5053101;28;20192;-74
2023/08/22 09:04:02;;;;;;;17.48;14.38;;;;;;;29.15;47.03;93289.84;5097906;28;20243;-73
2023/08/22 09:06:27;;;;;;;15.55;14.07;;;;;;;29.11;48.37;93297.13;5070515;28;20193;-74
2023/08/22 09:09:08;;;;;;;15.48;14.10;;;;;;;29.37;47.04;93296.88;5070412;28;20228;-73
2023/08/22 09:11:34;;;;;;;15.23;13.93;;;;;;;29.51;46.66;93299.63;5069392;28;20195;-73
2023/08/22 09:13:59;;;;;;;14.25;12.98;;;;;;;29.47;45.07;93301.53;5068293;28;20287;-73
2023/08/22 09:16:26;;;;;;;14.57;13.27;;;;;;;29.56;43.91;93293.09;5068274;28;20298;-76
2023/08/22 09:18:56;;;;;;;12.35;11.38;;;;;;;29.53;42.84;93291.16;5069979;28;20228;-73
2023/08/22 09:21:22;;;;;;;14.27;12.23;;;;;;;29.63;41.92;93291.25;5070495;28;20182;-73
2023/08/22 09:23:49;;;;;;;13.23;12.13;;;;;;;29.74;42.76;93292.03;5068897;28;20226;-73
2023/08/22 09:26:20;;;;;;;11.85;10.95;;;;;;;29.51;42.29;93291.53;5067953;28;20193;-72
2023/08/22 09:28:46;;;;;;;14.02;12.70;;;;;;;29.54;42.25;93284.66;5065494;28;20216;-70
2023/08/22 09:31:21;;;;;;;17.52;15.35;;;;;;;29.53;43.04;93283.88;5069048;28;20199;-71
2023/08/22 09:33:48;;;;;;;14.30;13.13;;;;;;;29.80;42.73;93286.25;5069039;28;20233;-71
2023/08/22 09:36:20;;;;;;;13.32;12.02;;;;;;;29.84;42.15;93276.28;5070313;28;20181;-72
2023/08/22 09:38:55;;;;;;;13.45;12.10;;;;;;;30.09;41.04;93290.56;5069683;28;20225;-70
2023/08/22 09:41:27;;;;;;;16.00;12.32;;;;;;;29.44;42.46;93278.06;5069955;28;20188;-71
2023/08/22 09:43:58;;;;;;;14.15;12.57;;;;;;;29.70;42.94;93280.47;5070001;28;20248;-71
2023/08/22 09:46:24;;;;;;;12.70;11.60;;;;;;;30.07;43.83;93279.41;5069985;28;20252;-71
2023/08/22 09:48:50;;;;;;;13.60;11.95;;;;;;;30.32;41.82;93280.22;5055517;28;20216;-70
2023/08/22 09:51:19;;;;;;;12.73;11.38;;;;;;;30.22;39.37;93272.88;5050199;28;20189;-70
2023/08/22 09:53:49;;;;;;;17.52;11.35;;;;;;;30.44;38.04;93271.72;5049316;28;20319;-70
2023/08/22 09:56:14;;;;;;;11.50;10.30;;;;;;;30.48;37.84;93267.09;5049796;28;20189;-70
2023/08/22 09:58:41;;;;;;;11.75;10.65;;;;;;;30.60;37.25;93255.94;5061386;28;20229;-71
2023/08/22 10:01:07;;;;;;;12.15;10.82;;;;;;;30.72;36.51;93266.31;5069311;28;20205;-69
2023/08/22 10:03:34;;;;;;;13.23;11.93;;;;;;;30.59;38.04;93267.84;5068569;28;20250;-70
2023/08/22 10:06:01;;;;;;;11.55;10.30;;;;;;;30.54;37.00;93263.63;5063338;28;20193;-70
2023/08/22 10:08:26;;;;;;;12.43;11.18;;;;;;;30.38;37.64;93262.50;5066982;28;20220;-69
2023/08/22 10:10:52;;;;;;;12.77;11.65;;;;;;;30.61;36.82;93266.34;5062853;28;20216;-70
2023/08/22 10:13:21;;;;;;;11.77;10.88;;;;;;;30.36;37.67;93241.31;5067966;28;20239;-70
2023/08/22 10:15:48;;;;;;;12.10;11.05;;;;;;;30.48;37.69;93261.72;5069479;28;20181;-70
2023/08/22 10:18:13;;;;;;;13.10;11.77;;;;;;;29.99;37.84;93240.13;5064547;28;20221;-70
2023/08/22 10:20:40;;;;;;;13.13;12.02;;;;;;;30.36;38.55;93246.72;5069267;28;20237;-70
2023/08/22 10:23:07;;;;;;;12.65;11.45;;;;;;;30.37;37.65;93244.78;5064051;28;20221;-69
2023/08/22 10:25:47;;;;;;;12.73;11.20;;;;;;;30.74;37.42;93247.81;5070033;28;20205;-70
2023/08/22 10:28:13;;;;;;;12.05;10.95;;;;;;;31.01;36.13;93240.84;5077250;28;20223;-72
2023/08/22 10:31:04;;;;;;;12.93;11.73;;;;;;;31.18;34.96;93238.06;5079081;28;20182;-71
2023/08/22 10:33:30;;;;;;;13.55;12.52;;;;;;;31.26;34.96;93244.22;5073876;28;20485;-71
2023/08/22 10:36:07;;;;;;;13.18;11.32;;;;;;;30.82;35.56;93223.16;5071555;28;20178;-71
2023/08/22 10:38:57;;;;;;;12.65;11.43;;;;;;;30.90;35.25;93229.31;5077688;28;20924;-73
2023/08/22 10:41:24;;;;;;;12.20;11.20;;;;;;;31.04;35.71;93231.94;5070329;28;20187;-70
2023/08/22 10:43:49;;;;;;;12.52;11.35;;;;;;;31.11;34.99;93230.00;5070227;28;20224;-71
2023/08/22 10:46:14;;;;;;;10.98;10.07;;;;;;;31.34;35.43;93226.84;5068279;28;20185;-71
2023/08/22 10:48:40;;;;;;;11.98;10.98;;;;;;;31.38;35.38;93233.00;5075190;28;20216;-71
2023/08/22 10:51:07;;;;;;;11.68;10.68;;;;;;;31.68;35.90;93222.44;5071695;28;20181;-71
2023/08/22 10:53:43;;;;;;;12.52;11.18;;;;;;;31.79;34.79;93214.25;5071603;28;20247;-71
2023/08/22 10:56:17;;;;;;;11.77;10.85;;;;;;;31.46;34.65;93228.34;5076041;28;20185;-70
2023/08/22 10:58:43;;;;;;;12.15;11.18;;;;;;;31.90;34.76;93220.38;5065883;28;20220;-71
2023/08/22 11:01:15;;;;;;;12.43;11.32;;;;;;;31.93;34.19;93225.78;5070574;28;20173;-70
2023/08/22 11:03:42;;;;;;;18.50;11.07;;;;;;;31.94;33.60;93221.91;5066686;28;20213;-71
2023/08/22 11:06:18;;;;;;;11.63;10.70;;;;;;;31.88;34.23;93220.03;5081637;28;20193;-71
2023/08/22 11:08:45;;;;;;;11.38;10.32;;;;;;;31.86;34.36;93220.41;5070355;28;20236;-71
2023/08/22 11:11:12;;;;;;;12.20;10.98;;;;;;;32.09;34.20;93227.97;5069104;28;20239;-71
2023/08/22 11:13:38;;;;;;;14.00;10.68;;;;;;;31.97;34.14;93223.81;5061437;28;20226;-71